sensor_id;sensor_type;location;lat;lon;timestamp;temperature;humidity
14995;DHT22;7593;49.006;8.372;2023-12-04T00:02:25;-2.80;99.90
14995;DHT22;7593;49.006;8.372;2023-12-04T00:04:52;-2.90;99.90
14995;DHT22;7593;49.006;8.372;2023-12-04T00:07:19;-2.90;99.90
14995;DHT22;7593;49.006;8.372;2023-12-04T00:09:45;-3.00;99.90
14995;DHT22;7593;49.006;8.372;2023-12-04T00:12:12;-3.00;99.90
14995;DHT22;7593;49.006;8.372;2023-12-04T00:14:39;-3.00;99.90
14995;DHT22;7593;49.006;8.372;2023-12-04T00:17:06;-3.00;99.90
14995;DHT22;7593;49.006;8.372;2023-12-04T00:19:34;-3.00;99.90
14995;DHT22;7593;49.006;8.372;2023-12-04T00:22:01;-3.10;99.90
14995;DHT22;7593;49.006;8.372;2023-12-04T00:24:28;-3.00;99.90
14995;DHT22;7593;49.006;8.372;2023-12-04T00:26:54;-3.00;99.90
14995;DHT22;7593;49.006;8.372;2023-12-04T00:29:21;-3.00;99.90
14995;DHT22;7593;49.006;8.372;2023-12-04T00:31:48;-3.00;99.90
14995;DHT22;7593;49.006;8.372;2023-12-04T00:34:14;-3.00;99.90
14995;DHT22;7593;49.006;8.372;2023-12-04T00:36:43;-3.00;99.90
14995;DHT22;7593;49.006;8.372;2023-12-04T00:39:10;-3.00;99.90
14995;DHT22;7593;49.006;8.372;2023-12-04T00:41:36;-3.10;99.90
14995;DHT22;7593;49.006;8.372;2023-12-04T00:44:03;-3.10;99.90
14995;DHT22;7593;49.006;8.372;2023-12-04T00:46:30;-3.10;99.90
14995;DHT22;7593;49.006;8.372;2023-12-04T00:48:57;-3.10;99.90
14995;DHT22;7593;49.006;8.372;2023-12-04T00:51:24;-3.10;99.90
14995;DHT22;7593;49.006;8.372;2023-12-04T00:53:53;-3.10;99.90
14995;DHT22;7593;49.006;8.372;2023-12-04T00:56:20;-3.10;99.90
14995;DHT22;7593;49.006;8.372;2023-12-04T00:58:46;-3.10;99.90
14995;DHT22;7593;49.006;8.372;2023-12-04T01:01:14;-3.10;99.90
14995;DHT22;7593;49.006;8.372;2023-12-04T01:03:41;-3.10;99.90
14995;DHT22;7593;49.006;8.372;2023-12-04T01:06:08;-3.10;99.90
14995;DHT22;7593;49.006;8.372;2023-12-04T01:08:46;-3.10;99.90
14995;DHT22;7593;49.006;8.372;2023-12-04T01:11:16;-3.10;99.90
14995;DHT22;7593;49.006;8.372;2023-12-04T01:13:45;-3.20;99.90
14995;DHT22;7593;49.006;8.372;2023-12-04T01:16:15;-3.20;99.90
14995;DHT22;7593;49.006;8.372;2023-12-04T01:18:42;-3.20;99.90
14995;DHT22;7593;49.006;8.372;2023-12-04T01:21:09;-3.20;99.90
14995;DHT22;7593;49.006;8.372;2023-12-04T01:23:36;-3.20;99.90
14995;DHT22;7593;49.006;8.372;2023-12-04T01:26:03;-3.20;99.90
14995;DHT22;7593;49.006;8.372;2023-12-04T01:28:31;-3.20;99.90
14995;DHT22;7593;49.006;8.372;2023-12-04T01:30:58;-3.20;99.90
14995;DHT22;7593;49.006;8.372;2023-12-04T01:33:25;-3.20;99.90
14995;DHT22;7593;49.006;8.372;2023-12-04T01:35:52;-3.20;99.90
14995;DHT22;7593;49.006;8.372;2023-12-04T01:38:19;-3.30;99.90
14995;DHT22;7593;49.006;8.372;2023-12-04T01:40:46;-3.30;99.90
14995;DHT22;7593;49.006;8.372;2023-12-04T01:43:13;-3.30;99.90
14995;DHT22;7593;49.006;8.372;2023-12-04T01:45:41;-3.40;99.90
14995;DHT22;7593;49.006;8.372;2023-12-04T01:48:09;-3.40;99.90
14995;DHT22;7593;49.006;8.372;2023-12-04T01:50:36;-3.40;99.90
14995;DHT22;7593;49.006;8.372;2023-12-04T01:53:04;-3.50;99.90
14995;DHT22;7593;49.006;8.372;2023-12-04T01:55:33;-3.50;99.90
14995;DHT22;7593;49.006;8.372;2023-12-04T01:58:01;-3.50;99.90
14995;DHT22;7593;49.006;8.372;2023-12-04T02:00:28;-3.50;99.90
14995;DHT22;7593;49.006;8.372;2023-12-04T02:02:58;-3.40;99.90
14995;DHT22;7593;49.006;8.372;2023-12-04T02:05:26;-3.50;99.90
14995;DHT22;7593;49.006;8.372;2023-12-04T02:07:53;-3.50;99.90
14995;DHT22;7593;49.006;8.372;2023-12-04T02:10:20;-3.50;99.90
14995;DHT22;7593;49.006;8.372;2023-12-04T02:12:47;-3.50;99.90
14995;DHT22;7593;49.006;8.372;2023-12-04T02:15:14;-3.60;99.90
14995;DHT22;7593;49.006;8.372;2023-12-04T02:17:43;-3.60;99.90
14995;DHT22;7593;49.006;8.372;2023-12-04T02:20:12;-3.60;99.90
14995;DHT22;7593;49.006;8.372;2023-12-04T02:22:39;-3.60;99.90
14995;DHT22;7593;49.006;8.372;2023-12-04T02:25:08;-3.60;99.90
14995;DHT22;7593;49.006;8.372;2023-12-04T02:27:40;-3.60;99.90
14995;DHT22;7593;49.006;8.372;2023-12-04T02:30:11;-3.60;99.90
14995;DHT22;7593;49.006;8.372;2023-12-04T02:32:42;-3.60;99.90
14995;DHT22;7593;49.006;8.372;2023-12-04T02:35:11;-3.60;99.90
14995;DHT22;7593;49.006;8.372;2023-12-04T02:37:39;-3.60;99.90
14995;DHT22;7593;49.006;8.372;2023-12-04T02:40:11;-3.50;99.90
14995;DHT22;7593;49.006;8.372;2023-12-04T02:42:39;-3.50;99.90
14995;DHT22;7593;49.006;8.372;2023-12-04T02:45:06;-3.50;99.90
14995;DHT22;7593;49.006;8.372;2023-12-04T02:47:33;-3.50;99.90
14995;DHT22;7593;49.006;8.372;2023-12-04T02:50:00;-3.50;99.90
14995;DHT22;7593;49.006;8.372;2023-12-04T02:52:27;-3.40;99.90
14995;DHT22;7593;49.006;8.372;2023-12-04T02:54:54;-3.40;99.90
14995;DHT22;7593;49.006;8.372;2023-12-04T02:57:22;-3.40;99.90
14995;DHT22;7593;49.006;8.372;2023-12-04T02:59:49;-3.40;99.90
14995;DHT22;7593;49.006;8.372;2023-12-04T03:02:15;-3.30;99.90
14995;DHT22;7593;49.006;8.372;2023-12-04T03:04:42;-3.30;99.90
14995;DHT22;7593;49.006;8.372;2023-12-04T03:07:09;-3.20;99.90
14995;DHT22;7593;49.006;8.372;2023-12-04T03:09:36;-3.30;99.90
14995;DHT22;7593;49.006;8.372;2023-12-04T03:12:03;-3.30;99.90
14995;DHT22;7593;49.006;8.372;2023-12-04T03:14:31;-3.30;99.90
14995;DHT22;7593;49.006;8.372;2023-12-04T03:16:57;-3.30;99.90
14995;DHT22;7593;49.006;8.372;2023-12-04T03:19:24;-3.30;99.90
14995;DHT22;7593;49.006;8.372;2023-12-04T03:21:51;-3.30;99.90
14995;DHT22;7593;49.006;8.372;2023-12-04T03:24:17;-3.30;99.90
14995;DHT22;7593;49.006;8.372;2023-12-04T03:26:44;-3.30;99.90
14995;DHT22;7593;49.006;8.372;2023-12-04T03:29:11;-3.30;99.90
14995;DHT22;7593;49.006;8.372;2023-12-04T03:31:40;-3.30;99.90
14995;DHT22;7593;49.006;8.372;2023-12-04T03:34:06;-3.30;99.90
14995;DHT22;7593;49.006;8.372;2023-12-04T03:36:33;-3.30;99.90
14995;DHT22;7593;49.006;8.372;2023-12-04T03:39:00;-3.30;99.90
14995;DHT22;7593;49.006;8.372;2023-12-04T03:41:26;-3.20;99.90
14995;DHT22;7593;49.006;8.372;2023-12-04T03:43:53;-3.30;99.90
14995;DHT22;7593;49.006;8.372;2023-12-04T03:46:20;-3.30;99.90
14995;DHT22;7593;49.006;8.372;2023-12-04T03:48:48;-3.30;99.90
14995;DHT22;7593;49.006;8.372;2023-12-04T03:51:15;-3.30;99.90
14995;DHT22;7593;49.006;8.372;2023-12-04T03:53:41;-3.40;99.90
14995;DHT22;7593;49.006;8.372;2023-12-04T03:56:10;-3.40;99.90
14995;DHT22;7593;49.006;8.372;2023-12-04T03:58:37;-3.40;99.90
14995;DHT22;7593;49.006;8.372;2023-12-04T04:01:04;-3.50;99.90
14995;DHT22;7593;49.006;8.372;2023-12-04T04:03:31;-3.50;99.90
14995;DHT22;7593;49.006;8.372;2023-12-04T04:05:59;-3.50;99.90
14995;DHT22;7593;49.006;8.372;2023-12-04T04:08:25;-3.50;99.90
14995;DHT22;7593;49.006;8.372;2023-12-04T04:10:52;-3.50;99.90
14995;DHT22;7593;49.006;8.372;2023-12-04T04:13:19;-3.50;99.90
14995;DHT22;7593;49.006;8.372;2023-12-04T04:15:46;-3.50;99.90
14995;DHT22;7593;49.006;8.372;2023-12-04T04:18:12;-3.60;99.90
14995;DHT22;7593;49.006;8.372;2023-12-04T04:20:39;-3.50;99.90
14995;DHT22;7593;49.006;8.372;2023-12-04T04:23:07;-3.60;99.90
14995;DHT22;7593;49.006;8.372;2023-12-04T04:25:34;-3.60;99.90
14995;DHT22;7593;49.006;8.372;2023-12-04T04:28:01;-3.60;99.90
14995;DHT22;7593;49.006;8.372;2023-12-04T04:30:27;-3.60;99.90
14995;DHT22;7593;49.006;8.372;2023-12-04T04:32:54;-3.70;99.90
14995;DHT22;7593;49.006;8.372;2023-12-04T04:35:21;-3.70;99.90
14995;DHT22;7593;49.006;8.372;2023-12-04T04:37:48;-3.70;99.90
14995;DHT22;7593;49.006;8.372;2023-12-04T04:40:16;-3.60;99.90
14995;DHT22;7593;49.006;8.372;2023-12-04T04:42:43;-3.60;99.90
14995;DHT22;7593;49.006;8.372;2023-12-04T04:45:10;-3.70;99.90
14995;DHT22;7593;49.006;8.372;2023-12-04T04:47:37;-3.70;99.90
14995;DHT22;7593;49.006;8.372;2023-12-04T04:50:04;-3.70;99.90
14995;DHT22;7593;49.006;8.372;2023-12-04T04:52:31;-3.80;99.90
14995;DHT22;7593;49.006;8.372;2023-12-04T04:54:58;-3.70;99.90
14995;DHT22;7593;49.006;8.372;2023-12-04T04:57:26;-3.70;99.90
14995;DHT22;7593;49.006;8.372;2023-12-04T04:59:52;-3.80;99.90
14995;DHT22;7593;49.006;8.372;2023-12-04T05:02:19;-3.80;99.90
14995;DHT22;7593;49.006;8.372;2023-12-04T05:04:46;-3.80;99.90
14995;DHT22;7593;49.006;8.372;2023-12-04T05:07:13;-3.90;99.90
14995;DHT22;7593;49.006;8.372;2023-12-04T05:09:40;-3.90;99.90
14995;DHT22;7593;49.006;8.372;2023-12-04T05:12:07;-4.00;99.90
14995;DHT22;7593;49.006;8.372;2023-12-04T05:14:35;-3.90;99.90
14995;DHT22;7593;49.006;8.372;2023-12-04T05:17:01;-3.90;99.90
14995;DHT22;7593;49.006;8.372;2023-12-04T05:19:28;-3.90;99.90
14995;DHT22;7593;49.006;8.372;2023-12-04T05:21:55;-3.90;99.90
14995;DHT22;7593;49.006;8.372;2023-12-04T05:24:22;-3.80;99.90
14995;DHT22;7593;49.006;8.372;2023-12-04T05:26:49;-3.90;99.90
14995;DHT22;7593;49.006;8.372;2023-12-04T05:29:15;-3.80;99.90
14995;DHT22;7593;49.006;8.372;2023-12-04T05:31:44;-3.80;99.90
14995;DHT22;7593;49.006;8.372;2023-12-04T05:34:10;-3.80;99.90
14995;DHT22;7593;49.006;8.372;2023-12-04T05:36:37;-3.80;99.90
14995;DHT22;7593;49.006;8.372;2023-12-04T05:39:04;-3.70;99.90
14995;DHT22;7593;49.006;8.372;2023-12-04T05:41:31;-3.80;99.90
14995;DHT22;7593;49.006;8.372;2023-12-04T05:43:57;-3.70;99.90
14995;DHT22;7593;49.006;8.372;2023-12-04T05:46:24;-3.70;99.90
14995;DHT22;7593;49.006;8.372;2023-12-04T05:48:52;-3.70;99.90
14995;DHT22;7593;49.006;8.372;2023-12-04T05:51:19;-3.70;99.90
14995;DHT22;7593;49.006;8.372;2023-12-04T05:53:46;-3.60;99.90
14995;DHT22;7593;49.006;8.372;2023-12-04T05:56:12;-3.60;99.90
14995;DHT22;7593;49.006;8.372;2023-12-04T05:58:39;-3.60;99.90
14995;DHT22;7593;49.006;8.372;2023-12-04T06:01:06;-3.50;99.90
14995;DHT22;7593;49.006;8.372;2023-12-04T06:03:33;-3.50;99.90
14995;DHT22;7593;49.006;8.372;2023-12-04T06:06:02;-3.50;99.90
14995;DHT22;7593;49.006;8.372;2023-12-04T06:08:28;-3.50;99.90
14995;DHT22;7593;49.006;8.372;2023-12-04T06:10:55;-3.40;99.90
14995;DHT22;7593;49.006;8.372;2023-12-04T06:13:22;-3.40;99.90
14995;DHT22;7593;49.006;8.372;2023-12-04T06:15:49;-3.30;99.90
14995;DHT22;7593;49.006;8.372;2023-12-04T06:18:16;-3.30;99.90
14995;DHT22;7593;49.006;8.372;2023-12-04T06:20:43;-3.30;99.90
14995;DHT22;7593;49.006;8.372;2023-12-04T06:23:11;-3.30;99.90
14995;DHT22;7593;49.006;8.372;2023-12-04T06:25:38;-3.20;99.90
14995;DHT22;7593;49.006;8.372;2023-12-04T06:28:06;-3.20;99.90
14995;DHT22;7593;49.006;8.372;2023-12-04T06:30:33;-3.20;99.90
14995;DHT22;7593;49.006;8.372;2023-12-04T06:33:01;-3.10;99.90
14995;DHT22;7593;49.006;8.372;2023-12-04T06:35:28;-3.10;99.90
14995;DHT22;7593;49.006;8.372;2023-12-04T06:37:55;-3.00;99.90
14995;DHT22;7593;49.006;8.372;2023-12-04T06:40:27;-3.00;99.90
14995;DHT22;7593;49.006;8.372;2023-12-04T06:42:54;-2.90;99.90
14995;DHT22;7593;49.006;8.372;2023-12-04T06:45:21;-2.90;99.90
14995;DHT22;7593;49.006;8.372;2023-12-04T06:47:50;-2.70;99.90
14995;DHT22;7593;49.006;8.372;2023-12-04T06:50:17;-2.70;99.90
14995;DHT22;7593;49.006;8.372;2023-12-04T06:52:44;-2.70;99.90
14995;DHT22;7593;49.006;8.372;2023-12-04T06:55:11;-2.70;99.90
14995;DHT22;7593;49.006;8.372;2023-12-04T06:57:40;-2.60;99.90
14995;DHT22;7593;49.006;8.372;2023-12-04T07:00:07;-2.60;99.90
14995;DHT22;7593;49.006;8.372;2023-12-04T07:02:37;-2.50;99.90
14995;DHT22;7593;49.006;8.372;2023-12-04T07:05:05;-2.50;99.90
14995;DHT22;7593;49.006;8.372;2023-12-04T07:07:32;-2.50;99.90
14995;DHT22;7593;49.006;8.372;2023-12-04T07:09:59;-2.40;99.90
14995;DHT22;7593;49.006;8.372;2023-12-04T07:12:26;-2.40;99.90
14995;DHT22;7593;49.006;8.372;2023-12-04T07:14:54;-2.40;99.90
14995;DHT22;7593;49.006;8.372;2023-12-04T07:17:20;-2.30;99.90
14995;DHT22;7593;49.006;8.372;2023-12-04T07:19:47;-2.30;99.90
14995;DHT22;7593;49.006;8.372;2023-12-04T07:22:14;-2.30;99.90
14995;DHT22;7593;49.006;8.372;2023-12-04T07:24:41;-2.20;99.90
14995;DHT22;7593;49.006;8.372;2023-12-04T07:27:08;-2.20;99.90
14995;DHT22;7593;49.006;8.372;2023-12-04T07:29:35;-2.20;99.90
14995;DHT22;7593;49.006;8.372;2023-12-04T07:32:05;-2.10;99.90
14995;DHT22;7593;49.006;8.372;2023-12-04T07:34:32;-2.00;99.90
14995;DHT22;7593;49.006;8.372;2023-12-04T07:36:59;-2.00;99.90
14995;DHT22;7593;49.006;8.372;2023-12-04T07:39:26;-2.00;99.90
14995;DHT22;7593;49.006;8.372;2023-12-04T07:41:52;-1.90;99.90
14995;DHT22;7593;49.006;8.372;2023-12-04T07:44:19;-1.90;99.90
14995;DHT22;7593;49.006;8.372;2023-12-04T07:46:46;-1.80;99.90
14995;DHT22;7593;49.006;8.372;2023-12-04T07:49:14;-1.70;99.90
14995;DHT22;7593;49.006;8.372;2023-12-04T07:51:41;-1.70;99.90
14995;DHT22;7593;49.006;8.372;2023-12-04T07:54:07;-1.60;99.90
14995;DHT22;7593;49.006;8.372;2023-12-04T07:56:34;-1.60;99.90
14995;DHT22;7593;49.006;8.372;2023-12-04T07:59:01;-1.60;99.90
14995;DHT22;7593;49.006;8.372;2023-12-04T08:01:27;-1.60;99.90
14995;DHT22;7593;49.006;8.372;2023-12-04T08:03:54;-1.60;99.90
14995;DHT22;7593;49.006;8.372;2023-12-04T08:06:22;-1.60;99.90
14995;DHT22;7593;49.006;8.372;2023-12-04T08:08:49;-1.60;99.90
14995;DHT22;7593;49.006;8.372;2023-12-04T08:11:16;-1.70;99.90
14995;DHT22;7593;49.006;8.372;2023-12-04T08:13:43;-1.70;99.90
14995;DHT22;7593;49.006;8.372;2023-12-04T08:16:13;-1.70;99.90
14995;DHT22;7593;49.006;8.372;2023-12-04T08:18:41;-1.70;99.90
14995;DHT22;7593;49.006;8.372;2023-12-04T08:21:09;-1.70;99.90
14995;DHT22;7593;49.006;8.372;2023-12-04T08:23:38;-1.70;99.90
14995;DHT22;7593;49.006;8.372;2023-12-04T08:26:05;-1.70;99.90
14995;DHT22;7593;49.006;8.372;2023-12-04T08:28:33;-1.70;99.90
14995;DHT22;7593;49.006;8.372;2023-12-04T08:31:00;-1.70;99.90
14995;DHT22;7593;49.006;8.372;2023-12-04T08:33:27;-1.70;99.90
14995;DHT22;7593;49.006;8.372;2023-12-04T08:35:54;-1.70;99.90
14995;DHT22;7593;49.006;8.372;2023-12-04T08:38:21;-1.60;99.90
14995;DHT22;7593;49.006;8.372;2023-12-04T08:40:49;-1.60;99.90
14995;DHT22;7593;49.006;8.372;2023-12-04T08:43:16;-1.60;99.90
14995;DHT22;7593;49.006;8.372;2023-12-04T08:45:44;-1.60;99.90
14995;DHT22;7593;49.006;8.372;2023-12-04T08:48:11;-1.60;99.90
14995;DHT22;7593;49.006;8.372;2023-12-04T08:50:38;-1.60;99.90
14995;DHT22;7593;49.006;8.372;2023-12-04T08:53:05;-1.50;99.90
14995;DHT22;7593;49.006;8.372;2023-12-04T08:55:31;-1.50;99.90
14995;DHT22;7593;49.006;8.372;2023-12-04T08:57:59;-1.50;99.90
14995;DHT22;7593;49.006;8.372;2023-12-04T09:00:26;-1.40;99.90
14995;DHT22;7593;49.006;8.372;2023-12-04T09:02:53;-1.40;99.90
14995;DHT22;7593;49.006;8.372;2023-12-04T09:05:21;-1.30;99.90
14995;DHT22;7593;49.006;8.372;2023-12-04T09:07:48;-1.30;99.90
14995;DHT22;7593;49.006;8.372;2023-12-04T09:10:14;-1.20;99.90
14995;DHT22;7593;49.006;8.372;2023-12-04T09:12:42;-1.20;99.90
14995;DHT22;7593;49.006;8.372;2023-12-04T09:15:11;-1.10;99.90
14995;DHT22;7593;49.006;8.372;2023-12-04T09:17:38;-1.10;99.90
14995;DHT22;7593;49.006;8.372;2023-12-04T09:20:05;-1.10;99.90
14995;DHT22;7593;49.006;8.372;2023-12-04T09:22:32;-1.10;99.90
14995;DHT22;7593;49.006;8.372;2023-12-04T09:25:00;-1.00;99.90
14995;DHT22;7593;49.006;8.372;2023-12-04T09:27:27;-1.00;99.90
14995;DHT22;7593;49.006;8.372;2023-12-04T09:29:54;-1.00;99.90
14995;DHT22;7593;49.006;8.372;2023-12-04T09:32:22;-1.00;99.90
14995;DHT22;7593;49.006;8.372;2023-12-04T09:34:50;-0.90;99.90
14995;DHT22;7593;49.006;8.372;2023-12-04T09:37:17;-0.90;99.90
14995;DHT22;7593;49.006;8.372;2023-12-04T09:39:44;-0.90;99.90
14995;DHT22;7593;49.006;8.372;2023-12-04T09:42:11;-0.80;99.90
14995;DHT22;7593;49.006;8.372;2023-12-04T09:44:39;-0.80;99.90
14995;DHT22;7593;49.006;8.372;2023-12-04T09:47:08;-0.80;99.90
14995;DHT22;7593;49.006;8.372;2023-12-04T09:49:37;-0.80;99.90
14995;DHT22;7593;49.006;8.372;2023-12-04T09:52:05;-0.80;99.90
14995;DHT22;7593;49.006;8.372;2023-12-04T09:54:33;-0.80;99.90
14995;DHT22;7593;49.006;8.372;2023-12-04T09:57:01;-0.80;99.90
14995;DHT22;7593;49.006;8.372;2023-12-04T09:59:29;-0.80;99.90
14995;DHT22;7593;49.006;8.372;2023-12-04T10:01:57;-0.80;99.90
14995;DHT22;7593;49.006;8.372;2023-12-04T10:04:25;-0.80;99.90
14995;DHT22;7593;49.006;8.372;2023-12-04T10:06:53;-0.80;99.90
14995;DHT22;7593;49.006;8.372;2023-12-04T10:09:20;-0.80;99.90
14995;DHT22;7593;49.006;8.372;2023-12-04T10:11:49;-0.80;99.90
14995;DHT22;7593;49.006;8.372;2023-12-04T10:14:17;-0.60;99.90
14995;DHT22;7593;49.006;8.372;2023-12-04T10:16:45;-0.50;99.90
14995;DHT22;7593;49.006;8.372;2023-12-04T10:19:19;-0.50;99.90
14995;DHT22;7593;49.006;8.372;2023-12-04T10:21:47;-0.40;99.90
14995;DHT22;7593;49.006;8.372;2023-12-04T10:24:27;-0.40;99.90
14995;DHT22;7593;49.006;8.372;2023-12-04T10:26:54;-0.30;99.90
14995;DHT22;7593;49.006;8.372;2023-12-04T10:29:22;-0.30;99.90
14995;DHT22;7593;49.006;8.372;2023-12-04T10:31:50;-0.20;99.90
14995;DHT22;7593;49.006;8.372;2023-12-04T10:34:18;-0.20;99.90
14995;DHT22;7593;49.006;8.372;2023-12-04T10:36:46;-0.20;99.90
14995;DHT22;7593;49.006;8.372;2023-12-04T10:39:13;-0.10;99.90
14995;DHT22;7593;49.006;8.372;2023-12-04T10:41:43;-0.10;99.90
14995;DHT22;7593;49.006;8.372;2023-12-04T10:44:14;-0.10;99.90
14995;DHT22;7593;49.006;8.372;2023-12-04T10:46:41;-0.10;99.90
14995;DHT22;7593;49.006;8.372;2023-12-04T10:49:09;-0.20;99.90
14995;DHT22;7593;49.006;8.372;2023-12-04T10:51:38;-0.20;99.90
14995;DHT22;7593;49.006;8.372;2023-12-04T10:54:05;-0.30;99.90
14995;DHT22;7593;49.006;8.372;2023-12-04T10:56:36;-0.30;99.90
14995;DHT22;7593;49.006;8.372;2023-12-04T10:59:09;-0.30;99.90
14995;DHT22;7593;49.006;8.372;2023-12-04T11:01:40;-0.40;99.90
14995;DHT22;7593;49.006;8.372;2023-12-04T11:04:11;-0.40;99.90
14995;DHT22;7593;49.006;8.372;2023-12-04T11:06:43;-0.40;99.90
14995;DHT22;7593;49.006;8.372;2023-12-04T11:09:15;-0.40;99.90
14995;DHT22;7593;49.006;8.372;2023-12-04T11:11:48;-0.30;99.90
14995;DHT22;7593;49.006;8.372;2023-12-04T11:14:21;-0.30;99.90
14995;DHT22;7593;49.006;8.372;2023-12-04T11:16:51;-0.30;99.90
14995;DHT22;7593;49.006;8.372;2023-12-04T11:19:23;-0.30;99.90
14995;DHT22;7593;49.006;8.372;2023-12-04T11:21:53;-0.30;99.90
14995;DHT22;7593;49.006;8.372;2023-12-04T11:24:23;-0.20;99.90
14995;DHT22;7593;49.006;8.372;2023-12-04T11:26:50;-0.20;99.90
14995;DHT22;7593;49.006;8.372;2023-12-04T11:29:19;-0.20;99.90
14995;DHT22;7593;49.006;8.372;2023-12-04T11:31:46;-0.20;99.90
14995;DHT22;7593;49.006;8.372;2023-12-04T11:34:13;-0.10;99.90
14995;DHT22;7593;49.006;8.372;2023-12-04T11:36:40;-0.10;99.90
14995;DHT22;7593;49.006;8.372;2023-12-04T11:39:09;-0.10;99.90
14995;DHT22;7593;49.006;8.372;2023-12-04T11:41:36;0.00;99.90
14995;DHT22;7593;49.006;8.372;2023-12-04T11:44:03;0.00;99.90
14995;DHT22;7593;49.006;8.372;2023-12-04T11:46:39;0.10;99.90
14995;DHT22;7593;49.006;8.372;2023-12-04T11:49:30;0.20;99.90
14995;DHT22;7593;49.006;8.372;2023-12-04T11:51:59;0.20;99.90
14995;DHT22;7593;49.006;8.372;2023-12-04T11:54:27;0.30;99.90
14995;DHT22;7593;49.006;8.372;2023-12-04T11:57:00;0.30;99.90
14995;DHT22;7593;49.006;8.372;2023-12-04T11:59:27;0.30;99.90
14995;DHT22;7593;49.006;8.372;2023-12-04T12:01:56;0.30;99.90
14995;DHT22;7593;49.006;8.372;2023-12-04T12:04:24;0.30;99.90
14995;DHT22;7593;49.006;8.372;2023-12-04T12:06:52;0.30;99.90
14995;DHT22;7593;49.006;8.372;2023-12-04T12:09:19;0.30;99.90
14995;DHT22;7593;49.006;8.372;2023-12-04T12:11:46;0.30;99.90
14995;DHT22;7593;49.006;8.372;2023-12-04T12:14:13;0.30;99.90
14995;DHT22;7593;49.006;8.372;2023-12-04T12:16:40;0.30;99.90
14995;DHT22;7593;49.006;8.372;2023-12-04T12:19:08;0.30;99.90
14995;DHT22;7593;49.006;8.372;2023-12-04T12:21:36;0.30;99.90
14995;DHT22;7593;49.006;8.372;2023-12-04T12:24:05;0.20;99.90
14995;DHT22;7593;49.006;8.372;2023-12-04T12:26:32;0.20;99.90
14995;DHT22;7593;49.006;8.372;2023-12-04T12:28:59;0.20;99.90
14995;DHT22;7593;49.006;8.372;2023-12-04T12:31:26;0.20;99.90
14995;DHT22;7593;49.006;8.372;2023-12-04T12:33:52;0.20;99.90
14995;DHT22;7593;49.006;8.372;2023-12-04T12:36:23;0.20;99.90
14995;DHT22;7593;49.006;8.372;2023-12-04T12:38:50;0.20;99.90
14995;DHT22;7593;49.006;8.372;2023-12-04T12:41:17;0.20;99.90
14995;DHT22;7593;49.006;8.372;2023-12-04T12:43:44;0.20;99.90
14995;DHT22;7593;49.006;8.372;2023-12-04T12:46:11;0.20;99.90
14995;DHT22;7593;49.006;8.372;2023-12-04T12:48:38;0.20;99.90
14995;DHT22;7593;49.006;8.372;2023-12-04T12:51:06;0.20;99.90
14995;DHT22;7593;49.006;8.372;2023-12-04T12:53:35;0.20;99.90
14995;DHT22;7593;49.006;8.372;2023-12-04T12:56:02;0.20;99.90
14995;DHT22;7593;49.006;8.372;2023-12-04T12:58:30;0.20;99.90
14995;DHT22;7593;49.006;8.372;2023-12-04T13:00:57;0.20;99.90
14995;DHT22;7593;49.006;8.372;2023-12-04T13:03:23;0.10;99.90
14995;DHT22;7593;49.006;8.372;2023-12-04T13:05:50;0.20;99.90
14995;DHT22;7593;49.006;8.372;2023-12-04T13:08:17;0.20;99.90
14995;DHT22;7593;49.006;8.372;2023-12-04T13:10:45;0.20;99.90
14995;DHT22;7593;49.006;8.372;2023-12-04T13:13:12;0.20;99.90
14995;DHT22;7593;49.006;8.372;2023-12-04T13:15:39;0.20;99.90
14995;DHT22;7593;49.006;8.372;2023-12-04T13:18:06;0.20;99.90
14995;DHT22;7593;49.006;8.372;2023-12-04T13:20:33;0.30;99.90
14995;DHT22;7593;49.006;8.372;2023-12-04T13:23:00;0.20;99.90
14995;DHT22;7593;49.006;8.372;2023-12-04T13:25:27;0.30;99.90
14995;DHT22;7593;49.006;8.372;2023-12-04T13:27:55;0.30;99.90
14995;DHT22;7593;49.006;8.372;2023-12-04T13:30:22;0.30;99.90
14995;DHT22;7593;49.006;8.372;2023-12-04T13:32:49;0.20;99.90
14995;DHT22;7593;49.006;8.372;2023-12-04T13:35:16;0.20;99.90
14995;DHT22;7593;49.006;8.372;2023-12-04T13:37:44;0.20;99.90
14995;DHT22;7593;49.006;8.372;2023-12-04T13:40:11;0.20;99.90
14995;DHT22;7593;49.006;8.372;2023-12-04T13:42:41;0.20;99.90
14995;DHT22;7593;49.006;8.372;2023-12-04T13:45:26;0.20;99.90
14995;DHT22;7593;49.006;8.372;2023-12-04T13:47:53;0.20;99.90
14995;DHT22;7593;49.006;8.372;2023-12-04T13:50:20;0.30;99.90
14995;DHT22;7593;49.006;8.372;2023-12-04T13:52:47;0.30;99.90
14995;DHT22;7593;49.006;8.372;2023-12-04T13:55:21;0.30;99.90
14995;DHT22;7593;49.006;8.372;2023-12-04T13:58:02;0.30;99.90
14995;DHT22;7593;49.006;8.372;2023-12-04T14:00:37;0.30;99.90
14995;DHT22;7593;49.006;8.372;2023-12-04T14:03:04;0.30;99.90
14995;DHT22;7593;49.006;8.372;2023-12-04T14:05:32;0.30;99.90
14995;DHT22;7593;49.006;8.372;2023-12-04T14:07:59;0.40;99.90
14995;DHT22;7593;49.006;8.372;2023-12-04T14:10:27;0.30;99.90
14995;DHT22;7593;49.006;8.372;2023-12-04T14:12:54;0.40;99.90
14995;DHT22;7593;49.006;8.372;2023-12-04T14:15:21;0.40;99.90
14995;DHT22;7593;49.006;8.372;2023-12-04T14:17:50;0.30;99.90
14995;DHT22;7593;49.006;8.372;2023-12-04T14:20:17;0.30;99.90
14995;DHT22;7593;49.006;8.372;2023-12-04T14:22:47;0.30;99.90
14995;DHT22;7593;49.006;8.372;2023-12-04T14:25:14;0.30;99.90
14995;DHT22;7593;49.006;8.372;2023-12-04T14:27:41;0.30;99.90
14995;DHT22;7593;49.006;8.372;2023-12-04T14:30:10;0.40;99.90
14995;DHT22;7593;49.006;8.372;2023-12-04T14:32:37;0.40;99.90
14995;DHT22;7593;49.006;8.372;2023-12-04T14:35:06;0.40;99.90
14995;DHT22;7593;49.006;8.372;2023-12-04T14:37:34;0.40;99.90
14995;DHT22;7593;49.006;8.372;2023-12-04T14:40:01;0.40;99.90
14995;DHT22;7593;49.006;8.372;2023-12-04T14:42:30;0.40;99.90
14995;DHT22;7593;49.006;8.372;2023-12-04T14:44:56;0.40;99.90
14995;DHT22;7593;49.006;8.372;2023-12-04T14:47:23;0.40;99.90
14995;DHT22;7593;49.006;8.372;2023-12-04T14:49:50;0.40;99.90
14995;DHT22;7593;49.006;8.372;2023-12-04T14:52:21;0.40;99.90
14995;DHT22;7593;49.006;8.372;2023-12-04T14:54:48;0.40;99.90
14995;DHT22;7593;49.006;8.372;2023-12-04T14:57:38;0.50;99.90
14995;DHT22;7593;49.006;8.372;2023-12-04T15:00:36;0.50;99.90
14995;DHT22;7593;49.006;8.372;2023-12-04T15:03:28;0.50;99.90
14995;DHT22;7593;49.006;8.372;2023-12-04T15:06:18;0.50;99.90
14995;DHT22;7593;49.006;8.372;2023-12-04T15:09:08;0.50;99.90
14995;DHT22;7593;49.006;8.372;2023-12-04T15:11:54;0.60;99.90
14995;DHT22;7593;49.006;8.372;2023-12-04T15:14:43;0.60;99.90
14995;DHT22;7593;49.006;8.372;2023-12-04T15:17:15;0.60;99.90
14995;DHT22;7593;49.006;8.372;2023-12-04T15:19:55;0.60;99.90
14995;DHT22;7593;49.006;8.372;2023-12-04T15:22:45;0.60;99.90
14995;DHT22;7593;49.006;8.372;2023-12-04T15:25:14;0.60;99.90
14995;DHT22;7593;49.006;8.372;2023-12-04T15:27:40;0.60;99.90
14995;DHT22;7593;49.006;8.372;2023-12-04T15:30:07;0.60;99.90
14995;DHT22;7593;49.006;8.372;2023-12-04T15:32:34;0.60;99.90
14995;DHT22;7593;49.006;8.372;2023-12-04T15:35:00;0.60;99.90
14995;DHT22;7593;49.006;8.372;2023-12-04T15:37:27;0.60;99.90
14995;DHT22;7593;49.006;8.372;2023-12-04T15:39:53;0.60;99.90
14995;DHT22;7593;49.006;8.372;2023-12-04T15:42:21;0.60;99.90
14995;DHT22;7593;49.006;8.372;2023-12-04T15:44:46;0.50;99.90
14995;DHT22;7593;49.006;8.372;2023-12-04T15:47:13;0.60;99.90
14995;DHT22;7593;49.006;8.372;2023-12-04T15:49:39;0.60;99.90
14995;DHT22;7593;49.006;8.372;2023-12-04T15:52:06;0.60;99.90
14995;DHT22;7593;49.006;8.372;2023-12-04T15:54:33;0.60;99.90
14995;DHT22;7593;49.006;8.372;2023-12-04T15:57:00;0.60;99.90